Time;durP1;ratioP1;P1;durP2;ratioP2;P2;SDS_P1;SDS_P2;PMS_P1;PMS_P2;Temp;Humidity;BMP_temperature;BMP_pressure;BME280_temperature;BME280_humidity;BME280_pressure;Samples;Min_cycle;Max_cycle;Signal;HPM_P1;HPM_P2
2023/04/19 06:21:03;;;;;;;;;32.00;28.25;;;;;9.63;68.13;101746.56;6248115;22;44760;-74
2023/04/19 06:23:29;;;;;;;;;35.00;32.50;;;;;9.70;67.43;101737.19;6244960;22;46183;-73
2023/04/19 06:25:55;;;;;;;;;35.00;29.25;;;;;9.79;67.39;101743.75;6247463;22;45441;-73
2023/04/19 06:28:20;;;;;;;;;38.00;31.00;;;;;9.88;67.31;101737.94;6246965;22;45217;-72
2023/04/19 06:30:45;;;;;;;;;32.50;29.00;;;;;9.99;67.24;101727.84;6247669;22;45374;-72
2023/04/19 06:33:11;;;;;;;;;32.75;27.50;;;;;10.14;67.54;101732.84;6246633;22;53382;-72
2023/04/19 06:35:36;;;;;;;;;33.75;25.75;;;;;10.26;66.61;101736.91;6246531;22;45189;-72
2023/04/19 06:38:02;;;;;;;;;30.75;27.50;;;;;10.49;66.78;101751.06;6246457;22;45113;-72
2023/04/19 06:40:28;;;;;;;;;42.25;33.00;;;;;10.61;66.46;101739.16;6244324;22;45204;-74
2023/04/19 06:42:53;;;;;;;;;32.75;29.00;;;;;10.70;65.46;101742.19;6244623;22;45663;-74
2023/04/19 06:45:19;;;;;;;;;28.75;24.50;;;;;10.71;65.40;101744.88;6247066;22;45321;-73
2023/04/19 06:47:44;;;;;;;;;34.25;29.50;;;;;10.94;65.29;101752.78;6247548;22;45596;-72
2023/04/19 06:50:10;;;;;;;;;30.50;30.50;;;;;11.08;65.09;101761.25;6245506;22;45241;-73
2023/04/19 06:52:35;;;;;;;;;25.50;23.50;;;;;11.22;64.55;101759.13;6246739;22;45413;-72
2023/04/19 06:55:01;;;;;;;;;38.50;33.75;;;;;11.28;64.64;101746.13;6246902;22;45382;-72
2023/04/19 06:57:26;;;;;;;;;33.50;29.00;;;;;11.41;64.23;101738.69;6244171;22;45295;-72
2023/04/19 06:59:53;;;;;;;;;34.25;28.50;;;;;11.70;63.80;101759.09;6245475;22;45303;-74
2023/04/19 07:02:19;;;;;;;;;30.00;27.25;;;;;11.81;63.77;101752.41;6242101;22;47025;-73
2023/04/19 07:04:46;;;;;;;;;31.25;29.75;;;;;11.92;62.45;101761.66;6245169;22;45382;-72
2023/04/19 07:07:11;;;;;;;;;29.75;28.25;;;;;12.08;62.69;101753.41;6244311;22;45182;-73
2023/04/19 07:09:36;;;;;;;;;27.00;25.00;;;;;12.25;62.43;101751.31;6246502;22;45130;-72
2023/04/19 07:12:02;;;;;;;;;34.00;31.00;;;;;12.47;62.25;101752.00;6242135;22;45256;-73
2023/04/19 07:14:27;;;;;;;;;28.25;27.25;;;;;12.58;62.57;101733.78;6245302;22;45160;-74
2023/04/19 07:16:53;;;;;;;;;28.25;26.25;;;;;12.76;61.14;101739.63;6244049;22;45232;-74
2023/04/19 07:19:19;;;;;;;;;28.50;25.50;;;;;12.92;60.95;101746.31;6247849;22;45200;-74
2023/04/19 07:21:44;;;;;;;;;29.75;23.50;;;;;13.05;60.75;101753.78;6249790;22;45486;-74
2023/04/19 07:24:10;;;;;;;;;38.00;30.00;;;;;13.13;60.52;101727.44;6276821;22;45288;-74
2023/04/19 07:26:35;;;;;;;;;29.25;27.75;;;;;13.37;59.23;101740.56;6276443;22;46757;-74
2023/04/19 07:29:00;;;;;;;;;30.00;27.00;;;;;13.71;58.79;101766.28;6277057;22;45675;-73
2023/04/19 07:31:26;;;;;;;;;31.50;28.00;;;;;13.91;60.49;101760.59;6277400;22;45497;-71
2023/04/19 07:33:52;;;;;;;;;35.50;30.75;;;;;14.09;59.93;101761.09;6276521;22;45303;-72
2023/04/19 07:36:18;;;;;;;;;25.50;25.00;;;;;14.29;57.46;101761.59;6277085;22;45331;-75
2023/04/19 07:38:43;;;;;;;;;26.00;26.00;;;;;14.53;59.52;101756.88;6276539;22;45268;-72
2023/04/19 07:41:09;;;;;;;;;30.00;26.25;;;;;14.63;58.19;101763.31;6277128;22;45513;-72
2023/04/19 07:43:35;;;;;;;;;29.50;27.75;;;;;14.74;56.51;101766.22;6276762;22;45946;-74
2023/04/19 07:46:01;;;;;;;;;28.25;21.50;;;;;14.71;54.84;101756.41;6276972;22;45275;-73
2023/04/19 07:48:26;;;;;;;;;29.75;24.25;;;;;14.85;56.50;101748.75;6276722;22;45173;-72
2023/04/19 07:50:51;;;;;;;;;31.00;26.25;;;;;15.10;55.93;101759.94;6276605;22;45158;-72
2023/04/19 07:53:17;;;;;;;;;29.25;28.25;;;;;15.19;56.25;101762.78;6276816;22;45283;-71
2023/04/19 07:55:42;;;;;;;;;30.00;29.00;;;;;15.10;55.34;101746.59;6276687;22;45247;-72
2023/04/19 07:58:08;;;;;;;;;25.75;25.75;;;;;15.04;54.91;101749.13;6277375;22;45338;-71
2023/04/19 08:00:35;;;;;;;;;36.50;26.75;;;;;15.27;55.33;101753.19;6276502;22;45166;-71
2023/04/19 08:03:01;;;;;;;;;28.25;26.25;;;;;15.37;53.66;101756.91;6277015;22;45449;-71
2023/04/19 08:05:26;;;;;;;;;26.25;25.50;;;;;15.53;54.89;101751.00;6247973;22;45218;-71
2023/04/19 08:07:52;;;;;;;;;27.75;25.00;;;;;15.60;53.30;101758.28;6277541;22;45279;-74
2023/04/19 08:10:18;;;;;;;;;26.25;23.75;;;;;15.73;53.94;101738.09;6274771;22;45253;-74
2023/04/19 08:12:43;;;;;;;;;28.25;26.50;;;;;15.93;55.27;101743.78;6273738;22;45320;-74
2023/04/19 08:15:08;;;;;;;;;27.25;26.50;;;;;16.06;54.27;101743.13;6247286;22;49823;-73
2023/04/19 08:17:34;;;;;;;;;32.50;30.50;;;;;16.34;53.22;101740.91;6276650;22;45288;-74
2023/04/19 08:20:00;;;;;;;;;24.00;22.00;;;;;16.56;53.26;101737.69;6275433;22;45286;-73
2023/04/19 08:22:25;;;;;;;;;39.00;33.25;;;;;16.83;53.75;101747.00;6274890;22;46034;-73
2023/04/19 08:24:52;;;;;;;;;29.00;26.25;;;;;16.94;53.02;101728.44;6276041;22;45307;-74
2023/04/19 08:27:17;;;;;;;;;31.00;29.25;;;;;17.19;50.74;101751.03;6276181;22;45343;-73
2023/04/19 08:29:43;;;;;;;;;31.00;28.25;;;;;17.34;52.44;101720.94;6276454;22;45220;-73
2023/04/19 08:32:10;;;;;;;;;28.00;24.67;;;;;17.58;51.17;101739.00;6248323;22;46797;-71
2023/04/19 08:34:36;;;;;;;;;26.67;25.67;;;;;17.70;51.07;101731.13;6275898;22;45295;-73
2023/04/19 08:37:02;;;;;;;;;27.33;25.00;;;;;17.99;51.54;101739.44;6276949;22;45305;-73
2023/04/19 08:39:28;;;;;;;;;27.67;27.67;;;;;18.04;51.19;101747.53;6278147;22;45242;-73
2023/04/19 08:41:55;;;;;;;;;27.33;27.33;;;;;18.18;51.47;101732.47;6274948;22;47708;-73
2023/04/19 08:44:21;;;;;;;;;31.67;27.00;;;;;18.31;50.90;101717.38;6249309;22;45262;-73
2023/04/19 08:46:49;;;;;;;;;26.67;26.00;;;;;18.29;48.18;101740.59;6277671;22;45232;-73
2023/04/19 08:49:18;;;;;;;;;31.67;25.33;;;;;18.49;47.67;101738.94;6274997;22;45202;-73
2023/04/19 08:51:47;;;;;;;;;31.67;28.00;;;;;18.63;49.24;101735.47;6276025;22;46207;-73
2023/04/19 08:54:14;;;;;;;;;26.67;24.33;;;;;18.71;45.58;101742.66;6277451;22;45237;-73
2023/04/19 08:56:39;;;;;;;;;25.67;22.67;;;;;19.04;47.07;101737.47;6277865;22;45450;-71
2023/04/19 08:59:05;;;;;;;;;25.67;24.33;;;;;19.28;49.55;101744.75;6275430;22;46015;-72
2023/04/19 09:01:30;;;;;;;;;22.33;22.33;;;;;19.25;48.06;101737.59;6249744;22;48356;-72
2023/04/19 09:03:56;;;;;;;;;29.67;26.67;;;;;19.23;48.19;101715.22;6248737;22;45297;-73
2023/04/19 09:06:21;;;;;;;;;28.00;25.67;;;;;19.62;45.06;101735.00;6277837;22;45235;-76
2023/04/19 09:08:46;;;;;;;;;28.33;25.67;;;;;19.79;47.18;101737.75;6277659;22;55373;-73
2023/04/19 09:11:12;;;;;;;;;22.00;21.33;;;;;19.87;46.86;101735.97;6278295;22;46113;-76
2023/04/19 09:13:39;;;;;;;;;33.00;26.67;;;;;19.96;45.38;101727.03;6277335;22;45248;-74
2023/04/19 09:16:06;;;;;;;;;28.00;24.67;;;;;20.06;44.99;101739.56;6278167;22;45284;-73
2023/04/19 09:18:32;;;;;;;;;23.67;22.67;;;;;20.18;46.23;101714.50;6276124;22;45469;-73
2023/04/19 09:20:57;;;;;;;;;29.33;24.67;;;;;20.41;43.73;101726.09;6276836;22;45164;-74
2023/04/19 09:23:29;;;;;;;;;22.33;21.33;;;;;20.65;43.73;101718.94;6277659;22;45207;-73
2023/04/19 09:25:59;;;;;;;;;25.00;24.00;;;;;20.90;46.14;101731.41;6277652;22;45260;-75
2023/04/19 09:28:25;;;;;;;;;22.67;21.67;;;;;20.91;42.64;101730.50;6277348;22;45217;-75
2023/04/19 09:30:51;;;;;;;;;20.00;18.33;;;;;20.92;43.61;101712.56;6277450;22;46124;-74
2023/04/19 09:33:32;;;;;;;;;22.67;21.67;;;;;21.09;44.27;101726.84;6275742;22;45204;-75
2023/04/19 09:35:58;;;;;;;;;22.67;21.00;;;;;21.24;41.93;101712.44;6277169;22;45216;-75
2023/04/19 09:38:24;;;;;;;;;23.00;21.00;;;;;21.40;41.97;101713.28;6277284;22;45220;-75
2023/04/19 09:40:49;;;;;;;;;24.00;22.00;;;;;21.42;42.81;101698.00;6277047;22;46782;-74
2023/04/19 09:43:24;;;;;;;;;27.33;26.67;;;;;21.65;43.60;101692.50;6277623;22;45473;-74
2023/04/19 09:45:49;;;;;;;;;25.00;24.33;;;;;21.78;43.18;101691.47;6278120;22;45231;-74
2023/04/19 09:48:15;;;;;;;;;26.00;23.00;;;;;21.90;40.92;101693.16;6250073;22;45686;-75
2023/04/19 09:50:51;;;;;;;;;16.33;16.33;;;;;22.04;41.23;101696.66;6276480;22;45935;-74
2023/04/19 09:53:17;;;;;;;;;23.67;23.00;;;;;22.09;40.46;101704.69;6276173;22;45339;-75
2023/04/19 09:55:45;;;;;;;;;24.67;21.33;;;;;22.07;41.45;101699.34;6277782;22;45286;-75
2023/04/19 09:58:10;;;;;;;;;25.00;22.00;;;;;22.16;42.14;101700.16;6277170;22;45137;-74
2023/04/19 10:00:37;;;;;;;;;20.00;19.00;;;;;22.32;42.29;101683.88;6277548;22;46110;-74
2023/04/19 10:03:05;;;;;;;;;20.33;18.33;;;;;22.61;40.78;101684.47;6278262;22;45579;-73
2023/04/19 10:05:31;;;;;;;;;21.00;21.00;;;;;22.72;41.07;101685.22;6276949;22;45233;-74
2023/04/19 10:08:00;;;;;;;;;22.33;19.33;;;;;22.53;40.67;101674.66;6277108;22;45278;-74
2023/04/19 10:10:28;;;;;;;;;17.33;16.33;;;;;22.55;39.82;101656.66;6277149;22;45204;-74
2023/04/19 10:12:58;;;;;;;;;19.00;16.00;;;;;22.73;39.57;101673.53;6277407;22;45228;-75
2023/04/19 10:15:26;;;;;;;;;19.00;18.00;;;;;22.81;37.78;101663.53;6277394;22;45232;-72
2023/04/19 10:17:51;;;;;;;;;25.33;23.67;;;;;22.96;37.69;101662.47;6278094;22;45201;-71
2023/04/19 10:20:33;;;;;;;;;21.00;18.00;;;;;23.01;36.95;101657.91;6248294;22;45604;-71
2023/04/19 10:22:59;;;;;;;;;20.00;18.33;;;;;23.29;39.65;101676.41;6277669;22;45268;-73
2023/04/19 10:25:29;;;;;;;;;20.67;19.33;;;;;23.05;39.43;101672.25;6277074;22;45648;-74
2023/04/19 10:27:54;;;;;;;;;18.67;18.33;;;;;22.97;39.67;101658.88;6277591;22;45219;-75
2023/04/19 10:30:21;;;;;;;;;20.00;17.67;;;;;23.13;38.27;101657.75;6277311;22;45317;-75
2023/04/19 10:32:55;;;;;;;;;19.33;19.33;;;;;23.24;39.46;101661.19;6277045;22;45275;-76
2023/04/19 10:35:37;;;;;;;;;20.33;19.33;;;;;23.35;38.26;101676.31;6281099;22;45339;-74
2023/04/19 10:38:13;;;;;;;;;18.67;17.00;;;;;23.18;38.20;101663.09;6277350;22;45410;-74
2023/04/19 10:40:59;;;;;;;;;21.67;20.00;;;;;23.27;39.06;101662.06;6274663;22;46135;-74
2023/04/19 10:43:35;;;;;;;;;20.33;17.33;;;;;23.30;36.98;101665.63;6277053;22;45231;-74
2023/04/19 10:46:07;;;;;;;;;23.33;23.33;;;;;23.21;38.50;101665.72;6275296;22;45407;-74
2023/04/19 10:48:37;;;;;;;;;20.33;19.00;;;;;23.20;38.42;101661.25;6275818;22;45169;-74
2023/04/19 10:51:02;;;;;;;;;21.33;18.33;;;;;23.03;37.44;101666.00;6276253;22;45996;-73
2023/04/19 10:53:59;;;;;;;;;19.33;17.00;;;;;23.22;39.07;101659.44;6248981;22;45674;-74
2023/04/19 10:56:33;;;;;;;;;17.00;17.00;;;;;23.31;37.73;101655.72;6249753;22;45364;-73
2023/04/19 10:59:03;;;;;;;;;26.00;19.00;;;;;23.15;36.49;101653.22;6277249;22;45213;-73
2023/04/19 11:01:41;;;;;;;;;19.33;18.67;;;;;23.18;37.91;101653.19;6276921;22;47218;-74
2023/04/19 11:04:29;;;;;;;;;23.33;19.00;;;;;23.16;38.05;101649.63;6275769;22;45375;-74
2023/04/19 11:07:00;;;;;;;;;20.33;19.33;;;;;23.14;37.14;101629.00;6215847;22;45678;-74
2023/04/19 11:09:43;;;;;;;;;28.67;27.00;;;;;23.35;37.30;101635.84;6276906;22;45193;-74
2023/04/19 11:12:16;;;;;;;;;22.67;22.33;;;;;23.48;37.72;101632.06;6277401;22;45729;-73
2023/04/19 11:14:42;;;;;;;;;20.67;20.33;;;;;23.54;36.41;101631.94;6248468;22;45617;-74
2023/04/19 11:17:24;;;;;;;;;12.00;12.00;;;;;23.72;36.93;101627.19;6277322;22;45206;-73
2023/04/19 11:19:55;;;;;;;;;16.67;14.33;;;;;23.90;37.32;101627.78;6274664;22;45052;-74
2023/04/19 11:22:41;;;;;;;;;10.67;10.67;;;;;24.01;37.27;101624.88;6277021;22;45344;-73
2023/04/19 11:25:09;;;;;;;;;12.00;12.00;;;;;24.27;37.02;101616.28;6276784;22;45268;-73
2023/04/19 11:27:36;;;;;;;;;15.33;14.00;;;;;24.32;35.85;101622.50;6250079;22;45299;-73
2023/04/19 11:30:13;;;;;;;;;14.00;12.33;;;;;24.00;34.41;101617.72;6249087;22;46208;-73
2023/04/19 11:32:55;;;;;;;;;16.67;14.00;;;;;24.01;35.96;101597.88;6276783;22;46576;-74
2023/04/19 11:35:23;;;;;;;;;22.33;14.33;;;;;24.19;35.20;101602.03;6275080;22;45275;-73
2023/04/19 11:37:49;;;;;;;;;13.00;12.00;;;;;24.46;34.61;101611.44;6275841;22;45212;-73
2023/04/19 11:40:17;;;;;;;;;10.67;10.00;;;;;24.41;33.92;101607.91;6275503;22;45411;-73
2023/04/19 11:42:43;;;;;;;;;14.00;12.00;;;;;24.50;34.49;101604.16;6276736;22;45296;-73
2023/04/19 11:45:09;;;;;;;;;11.00;9.50;;;;;24.42;34.01;101611.50;6276920;22;45262;-73
2023/04/19 11:47:35;;;;;;;;;18.00;17.00;;;;;24.37;34.46;101589.97;6275326;22;45268;-74
2023/04/19 11:50:29;;;;;;;;;10.50;10.50;;;;;24.30;34.56;101600.00;6275749;22;45198;-73
2023/04/19 11:52:54;;;;;;;;;11.75;11.25;;;;;24.36;33.74;101590.88;6276900;22;45247;-73
2023/04/19 11:55:20;;;;;;;;;12.00;12.00;;;;;24.47;34.49;101585.28;6275714;22;54278;-73
2023/04/19 11:57:46;;;;;;;;;12.25;12.25;;;;;24.53;34.61;101575.25;6275903;22;45331;-73
2023/04/19 12:00:13;;;;;;;;;3.75;3.75;;;;;24.62;33.65;101563.38;6248470;22;47112;-73
2023/04/19 12:02:45;;;;;;;;;13.25;11.50;;;;;24.78;34.74;101585.53;6276926;22;45162;-73
2023/04/19 12:05:12;;;;;;;;;12.00;10.25;;;;;24.80;33.87;101580.97;6247188;22;45351;-74
2023/04/19 12:08:07;;;;;;;;;13.50;13.50;;;;;24.73;32.25;101582.03;6249076;22;45247;-73
2023/04/19 12:10:33;;;;;;;;;14.75;13.50;;;;;24.65;32.36;101576.81;6248679;22;46214;-73
2023/04/19 12:12:59;;;;;;;;;10.00;10.00;;;;;24.68;32.33;101578.56;6277737;22;45214;-74
2023/04/19 12:15:44;;;;;;;;;11.00;11.00;;;;;24.82;32.91;101559.31;6277448;22;45366;-74
2023/04/19 12:18:09;;;;;;;;;11.75;9.75;;;;;25.07;33.00;101563.25;6277159;22;45479;-73
2023/04/19 12:20:36;;;;;;;;;12.50;11.25;;;;;25.05;32.45;101562.38;6276852;22;45335;-74
2023/04/19 12:23:02;;;;;;;;;12.75;10.00;;;;;25.27;32.70;101570.91;6248365;22;47530;-73
2023/04/19 12:25:33;;;;;;;;;9.75;7.75;;;;;25.47;32.95;101573.09;6276992;22;45409;-74
2023/04/19 12:28:03;;;;;;;;;11.00;11.00;;;;;25.50;32.63;101569.44;6278508;22;45279;-73
2023/04/19 12:30:29;;;;;;;;;13.50;12.25;;;;;25.38;32.98;101576.06;6277545;22;45281;-74
2023/04/19 12:32:55;;;;;;;;;15.25;15.00;;;;;25.29;32.13;101563.66;6277860;22;45265;-74
2023/04/19 12:35:27;;;;;;;;;14.00;12.75;;;;;25.12;32.59;101552.28;6276729;22;45287;-74
2023/04/19 12:37:55;;;;;;;;;12.25;10.75;;;;;25.10;32.70;101544.22;6278335;22;45248;-73
2023/04/19 12:40:20;;;;;;;;;10.75;8.25;;;;;25.40;33.34;101558.84;6277669;22;45280;-73
2023/04/19 12:42:46;;;;;;;;;8.25;8.25;;;;;25.54;33.03;101560.28;6278526;22;45955;-74
2023/04/19 12:45:12;;;;;;;;;17.00;15.00;;;;;25.63;33.47;101560.97;6277255;22;45098;-73
2023/04/19 12:47:42;;;;;;;;;13.00;13.00;;;;;25.55;33.30;101552.16;6250301;22;45227;-74
2023/04/19 12:50:08;;;;;;;;;11.00;10.25;;;;;25.51;33.37;101549.56;6248386;22;46739;-74
2023/04/19 12:52:34;;;;;;;;;11.00;9.75;;;;;25.63;32.32;101558.25;6278065;22;45875;-73
2023/04/19 12:54:59;;;;;;;;;14.25;12.50;;;;;25.85;32.81;101549.56;6277626;22;45280;-72
2023/04/19 12:57:24;;;;;;;;;8.00;8.00;;;;;25.88;32.84;101550.41;6278442;22;45165;-72
2023/04/19 12:59:50;;;;;;;;;11.00;11.00;;;;;26.06;31.86;101543.56;6277077;22;45241;-72
2023/04/19 13:02:15;;;;;;;;;7.50;6.00;;;;;26.00;32.44;101526.59;6277459;22;45856;-72
2023/04/19 13:04:40;;;;;;;;;9.25;9.25;;;;;26.11;31.10;101538.03;6277074;22;46675;-73
2023/04/19 13:07:06;;;;;;;;;8.25;8.25;;;;;26.14;31.34;101528.94;6277524;22;45564;-73
2023/04/19 13:09:31;;;;;;;;;9.50;7.75;;;;;25.85;30.56;101544.16;6277260;22;47360;-72
2023/04/19 13:11:57;;;;;;;;;7.25;7.25;;;;;25.53;31.89;101520.63;6277931;22;45535;-72
2023/04/19 13:14:24;;;;;;;;;6.75;6.50;;;;;25.55;31.57;101519.66;6277663;22;45300;-72
2023/04/19 13:16:49;;;;;;;;;8.00;7.00;;;;;25.38;30.25;101528.22;6278155;22;45173;-73
2023/04/19 13:19:14;;;;;;;;;8.25;8.00;;;;;25.55;30.87;101537.72;6276184;22;53182;-73
2023/04/19 13:21:40;;;;;;;;;9.50;6.75;;;;;25.72;31.03;101532.75;6277724;22;45887;-74
2023/04/19 13:24:06;;;;;;;;;7.75;7.75;;;;;25.76;30.49;101528.13;6277225;22;45299;-73
2023/04/19 13:26:33;;;;;;;;;7.50;6.75;;;;;25.62;31.42;101509.53;6278321;22;45299;-72
2023/04/19 13:28:58;;;;;;;;;7.75;5.75;;;;;25.50;31.20;101536.94;6276469;22;45193;-73
2023/04/19 13:31:24;;;;;;;;;9.75;8.75;;;;;25.44;31.04;101527.19;6278390;22;45239;-74
2023/04/19 13:33:49;;;;;;;;;7.00;7.00;;;;;25.26;30.30;101523.09;6276040;22;45291;-75
2023/04/19 13:36:14;;;;;;;;;10.75;9.25;;;;;24.97;30.57;101489.50;6278362;22;45801;-75
2023/04/19 13:38:40;;;;;;;;;10.00;7.75;;;;;24.96;31.77;101512.09;6249974;22;45292;-74
2023/04/19 13:41:05;;;;;;;;;9.50;7.25;;;;;24.88;30.90;101500.56;6278133;22;45736;-72
2023/04/19 13:43:31;;;;;;;;;7.75;7.75;;;;;25.02;30.88;101505.63;6277970;22;45194;-73
2023/04/19 13:45:56;;;;;;;;;7.25;7.25;;;;;24.95;31.28;101510.28;6250539;22;45343;-72
2023/04/19 13:48:21;;;;;;;;;6.00;3.50;;;;;24.66;30.80;101518.22;6277736;22;45196;-72
2023/04/19 13:50:47;;;;;;;;;7.00;6.00;;;;;24.43;31.55;101492.59;6277502;22;45449;-72
2023/04/19 13:53:12;;;;;;;;;7.00;5.75;;;;;24.60;31.36;101513.84;6278415;22;45275;-73
2023/04/19 13:55:37;;;;;;;;;8.00;6.75;;;;;24.49;31.29;101511.38;6250066;22;45503;-72
2023/04/19 13:58:03;;;;;;;;;7.00;7.00;;;;;24.49;32.06;101491.56;6278198;22;45505;-73
2023/04/19 14:00:28;;;;;;;;;6.00;5.00;;;;;24.52;32.16;101497.78;6250204;22;46033;-73
2023/04/19 14:02:55;;;;;;;;;8.00;6.50;;;;;24.50;32.06;101501.44;6278293;22;45166;-72
2023/04/19 14:05:20;;;;;;;;;5.25;5.25;;;;;24.32;32.39;101489.19;6277342;22;45267;-72
2023/04/19 14:07:45;;;;;;;;;6.00;6.00;;;;;24.56;31.91;101493.19;6277929;22;45449;-72
2023/04/19 14:10:11;;;;;;;;;6.75;6.00;;;;;24.75;31.74;101480.13;6277731;22;45422;-72
2023/04/19 14:12:36;;;;;;;;;4.75;4.75;;;;;24.54;31.62;101481.53;6277532;22;45268;-73
2023/04/19 14:15:02;;;;;;;;;7.25;6.00;;;;;24.39;32.37;101485.41;6278363;22;45255;-72
2023/04/19 14:17:27;;;;;;;;;3.00;3.00;;;;;24.34;31.86;101481.97;6278142;22;45265;-73
2023/04/19 14:19:52;;;;;;;;;6.75;6.75;;;;;24.41;32.76;101464.66;6276785;22;45412;-72
2023/04/19 14:22:18;;;;;;;;;6.25;6.25;;;;;24.36;31.52;101458.47;6250113;22;45260;-74
2023/04/19 14:24:45;;;;;;;;;5.00;5.00;;;;;24.63;32.60;101464.22;6277765;22;45431;-72
2023/04/19 14:27:10;;;;;;;;;7.75;6.00;;;;;24.53;31.92;101467.16;6277868;22;45425;-73
2023/04/19 14:29:35;;;;;;;;;6.50;6.50;;;;;24.24;31.50;101474.97;6277940;22;46350;-72
2023/04/19 14:32:01;;;;;;;;;5.25;5.25;;;;;24.16;32.24;101476.94;6278200;22;45264;-74
2023/04/19 14:34:26;;;;;;;;;7.00;6.00;;;;;24.19;32.15;101474.16;6277040;22;45520;-75
2023/04/19 14:36:52;;;;;;;;;6.00;6.00;;;;;23.92;31.63;101464.81;6277948;22;45174;-74
2023/04/19 14:39:17;;;;;;;;;3.25;3.25;;;;;23.90;31.98;101460.34;6277512;22;46023;-72
2023/04/19 14:41:42;;;;;;;;;6.50;5.00;;;;;23.74;32.15;101456.16;6278107;22;45165;-71
2023/04/19 14:44:08;;;;;;;;;6.00;6.00;;;;;23.70;33.09;101461.66;6277443;22;45185;-75
2023/04/19 14:46:33;;;;;;;;;3.50;3.50;;;;;23.55;31.99;101463.69;6277480;22;56923;-75
2023/04/19 14:49:02;;;;;;;;;7.25;6.00;;;;;23.31;32.36;101456.06;6277136;22;46281;-74
2023/04/19 14:51:28;;;;;;;;;8.25;6.00;;;;;23.36;33.27;101456.88;6250197;22;45444;-74
2023/04/19 14:53:54;;;;;;;;;4.00;4.00;;;;;23.20;33.08;101443.66;6277767;22;45356;-74
2023/04/19 14:56:19;;;;;;;;;4.00;4.00;;;;;23.47;33.06;101454.88;6277873;22;45356;-74
2023/04/19 14:58:44;;;;;;;;;5.75;5.75;;;;;23.52;32.00;101454.78;6277659;22;46254;-75
2023/04/19 15:01:13;;;;;;;;;4.00;2.00;;;;;23.33;32.39;101454.22;6278221;22;45284;-75
2023/04/19 15:03:39;;;;;;;;;5.50;5.00;;;;;23.29;32.63;101439.91;6277347;22;45231;-74
2023/04/19 15:06:06;;;;;;;;;4.00;4.00;;;;;23.28;32.90;101431.84;6277845;22;45153;-74
2023/04/19 15:08:31;;;;;;;;;8.00;6.00;;;;;23.30;32.95;101449.78;6275185;22;48080;-75
2023/04/19 15:10:57;;;;;;;;;5.00;3.00;;;;;23.17;33.46;101449.09;6274851;22;45280;-75
2023/04/19 15:13:22;;;;;;;;;4.75;4.75;;;;;23.11;33.32;101433.03;6277803;22;45453;-74
2023/04/19 15:15:47;;;;;;;;;4.75;4.75;;;;;22.99;33.45;101447.63;6276690;22;45320;-74
2023/04/19 15:18:13;;;;;;;;;5.33;4.33;;;;;22.69;33.10;101431.91;6277500;22;45260;-74
2023/04/19 15:20:40;;;;;;;;;4.00;4.00;;;;;23.02;33.28;101435.88;6276571;22;45270;-74
2023/04/19 15:23:06;;;;;;;;;4.50;4.50;;;;;22.88;33.26;101424.41;6277612;22;45235;-75
2023/04/19 15:25:31;;;;;;;;;5.75;4.50;;;;;22.91;33.55;101433.34;6277337;22;45235;-75
2023/04/19 15:27:57;;;;;;;;;4.00;3.75;;;;;22.58;33.56;101409.63;6277199;22;50243;-75
2023/04/19 15:30:22;;;;;;;;;3.50;3.50;;;;;22.63;33.97;101437.38;6277103;22;45223;-71
2023/04/19 15:32:47;;;;;;;;;5.25;5.00;;;;;22.60;33.44;101432.91;6277855;22;45185;-74
2023/04/19 15:35:13;;;;;;;;;4.00;4.00;;;;;22.63;33.72;101421.22;6276661;22;45263;-75
2023/04/19 15:37:40;;;;;;;;;22.33;16.67;;;;;22.83;33.69;101434.41;6277399;22;46207;-75
2023/04/19 15:40:08;;;;;;;;;9.67;7.67;;;;;22.75;33.83;101430.00;6277000;22;45302;-77
2023/04/19 15:42:34;;;;;;;;;6.00;6.00;;;;;22.61;33.86;101433.84;6275938;22;45346;-76
2023/04/19 15:44:59;;;;;;;;;5.00;4.00;;;;;22.23;33.43;101405.66;6277050;22;45428;-76
2023/04/19 15:47:24;;;;;;;;;6.33;5.67;;;;;22.18;34.31;101429.06;6249471;22;46992;-76
2023/04/19 15:49:51;;;;;;;;;6.00;6.00;;;;;22.13;34.56;101442.56;6250052;22;45280;-75
2023/04/19 15:52:17;;;;;;;;;4.00;4.00;;;;;21.89;34.66;101416.84;6251081;22;45251;-74
2023/04/19 15:54:43;;;;;;;;;3.67;3.67;;;;;21.86;35.01;101435.72;6276949;22;45501;-74
2023/04/19 15:57:09;;;;;;;;;5.00;5.00;;;;;21.71;35.14;101417.97;6278712;22;45328;-74
2023/04/19 15:59:34;;;;;;;;;4.33;4.33;;;;;21.70;35.17;101435.00;6278283;22;45199;-74
2023/04/19 16:01:59;;;;;;;;;6.00;5.33;;;;;21.52;34.82;101430.72;6278963;22;45106;-75
2023/04/19 16:04:25;;;;;;;;;6.00;6.00;;;;;21.49;35.12;101438.84;6278100;22;45528;-75
2023/04/19 16:06:50;;;;;;;;;7.33;5.67;;;;;21.30;35.30;101432.72;6278236;22;45512;-74
2023/04/19 16:09:16;;;;;;;;;6.67;3.67;;;;;21.15;35.09;101428.38;6250690;22;45547;-74
2023/04/19 16:11:41;;;;;;;;;6.00;5.33;;;;;20.98;35.47;101441.09;6278741;22;45224;-74
2023/04/19 16:14:06;;;;;;;;;5.00;5.00;;;;;20.74;35.50;101424.22;6278253;22;45453;-74
2023/04/19 16:16:33;;;;;;;;;6.00;5.67;;;;;20.96;35.59;101438.41;6278263;22;46249;-74
2023/04/19 16:18:59;;;;;;;;;4.67;4.67;;;;;20.91;35.43;101452.78;6277745;22;45286;-74
2023/04/19 16:21:27;;;;;;;;;6.00;6.00;;;;;20.78;35.62;101431.38;6278483;22;45395;-74
2023/04/19 16:23:59;;;;;;;;;4.67;4.67;;;;;20.83;35.61;101446.56;6278436;22;45224;-75
2023/04/19 16:26:24;;;;;;;;;7.00;6.00;;;;;20.79;35.71;101459.13;6278541;22;45360;-74
2023/04/19 16:28:50;;;;;;;;;6.00;5.00;;;;;20.67;35.74;101445.78;6278216;22;45189;-74
2023/04/19 16:31:15;;;;;;;;;7.00;5.00;;;;;20.66;35.87;101455.63;6251008;22;45346;-75
2023/04/19 16:33:41;;;;;;;;;7.33;5.67;;;;;20.39;36.07;101435.19;6277958;22;45399;-74
2023/04/19 16:36:06;;;;;;;;;6.00;6.00;;;;;20.30;36.04;101441.50;6277911;22;46102;-74
2023/04/19 16:38:31;;;;;;;;;5.00;5.00;;;;;20.26;36.54;101441.53;6277715;22;45194;-74
2023/04/19 16:40:59;;;;;;;;;4.67;4.67;;;;;20.21;36.51;101449.59;6278315;22;45146;-73
2023/04/19 16:43:25;;;;;;;;;4.67;4.67;;;;;20.12;36.55;101444.28;6276441;22;45317;-74
2023/04/19 16:45:50;;;;;;;;;6.00;6.00;;;;;19.87;36.88;101432.75;6277769;22;45530;-74
2023/04/19 16:48:15;;;;;;;;;4.67;4.67;;;;;19.75;37.30;101441.75;6250420;22;45327;-74
2023/04/19 16:50:41;;;;;;;;;7.33;6.33;;;;;19.63;37.38;101429.25;6278059;22;45141;-74
2023/04/19 16:53:06;;;;;;;;;7.00;6.00;;;;;19.54;37.22;101447.13;6278571;22;45312;-74
2023/04/19 16:55:31;;;;;;;;;6.00;6.00;;;;;19.50;37.72;101440.91;6277908;22;46049;-75
2023/04/19 16:57:57;;;;;;;;;9.67;4.67;;;;;19.31;37.56;101418.59;6277725;22;45189;-74
2023/04/19 17:00:22;;;;;;;;;5.00;5.00;;;;;19.46;37.82;101439.09;6278116;22;45292;-75
2023/04/19 17:02:48;;;;;;;;;6.00;6.00;;;;;19.40;37.41;101426.59;6250768;22;45273;-74
2023/04/19 17:05:14;;;;;;;;;6.33;6.33;;;;;19.33;38.18;101438.25;6277805;22;46232;-75
2023/04/19 17:07:40;;;;;;;;;6.67;5.00;;;;;19.28;38.17;101434.66;6278587;22;45299;-75
2023/04/19 17:10:06;;;;;;;;;7.00;6.00;;;;;19.17;38.08;101448.09;6278246;22;45236;-74
2023/04/19 17:12:32;;;;;;;;;7.00;7.00;;;;;18.99;38.39;101443.63;6278525;22;45228;-75
2023/04/19 17:14:57;;;;;;;;;4.00;4.00;;;;;18.73;38.43;101403.38;6277997;22;45703;-74
2023/04/19 17:17:23;;;;;;;;;3.67;3.67;;;;;18.92;38.61;101438.28;6278321;22;45236;-73
2023/04/19 17:19:48;;;;;;;;;4.00;4.00;;;;;18.79;38.60;101432.00;6277222;22;45421;-73
2023/04/19 17:22:14;;;;;;;;;7.67;6.33;;;;;18.74;38.70;101421.31;6278198;22;45575;-74
2023/04/19 17:24:40;;;;;;;;;22.67;22.67;;;;;18.67;38.43;101413.22;6278053;22;45217;-74
2023/04/19 17:27:05;;;;;;;;;8.33;8.33;;;;;18.47;38.90;101415.88;6278235;22;45317;-74
2023/04/19 17:29:31;;;;;;;;;7.00;7.00;;;;;18.58;38.62;101422.13;6278247;22;45149;-74
2023/04/19 17:31:56;;;;;;;;;8.00;5.00;;;;;18.48;38.45;101420.31;6276695;22;45295;-74
2023/04/19 17:34:22;;;;;;;;;6.33;5.33;;;;;18.39;38.80;101423.88;6275660;22;46059;-75
2023/04/19 17:36:48;;;;;;;;;7.33;6.00;;;;;18.36;38.82;101423.88;6278607;22;45267;-75